Time;durP1;ratioP1;P1;durP2;ratioP2;P2;SDS_P1;SDS_P2;PMS_P1;PMS_P2;Temp;Humidity;BMP_temperature;BMP_pressure;BME280_temperature;BME280_humidity;BME280_pressure;Samples;Min_cycle;Max_cycle;Signal;HPM_P1;HPM_P2
2021/07/22 00:02:20;;;;;;;15.15;11.68;;;28.10;81.80;;;;;;5053058;28;20033;-71
2021/07/22 00:04:46;;;;;;;16.20;11.88;;;28.10;82.30;;;;;;5023750;28;20091;-69
2021/07/22 00:07:12;;;;;;;16.10;12.25;;;28.00;82.30;;;;;;5048224;28;20029;-71
2021/07/22 00:09:39;;;;;;;13.55;10.82;;;27.80;82.90;;;;;;5030826;28;20460;-71
2021/07/22 00:12:07;;;;;;;17.10;11.90;;;27.60;83.80;;;;;;5032008;28;20024;-71
2021/07/22 00:14:33;;;;;;;15.23;10.45;;;27.70;83.20;;;;;;5033722;28;20384;-71
2021/07/22 00:17:02;;;;;;;14.45;9.98;;;27.50;83.10;;;;;;5040443;28;20411;-70
2021/07/22 00:19:28;;;;;;;13.77;9.93;;;27.60;83.10;;;;;;5016364;28;20042;-71
2021/07/22 00:21:54;;;;;;;15.57;10.52;;;27.60;82.80;;;;;;5026549;28;20128;-71
2021/07/22 00:24:19;;;;;;;14.48;10.13;;;27.60;82.70;;;;;;5026557;28;20137;-70
2021/07/22 00:26:45;;;;;;;13.60;9.77;;;27.50;82.70;;;;;;5040574;28;20029;-71
2021/07/22 00:29:11;;;;;;;12.55;9.88;;;27.40;84.30;;;;;;5043276;28;20435;-71
2021/07/22 00:31:36;;;;;;;16.95;10.05;;;27.40;83.70;;;;;;5046011;28;20040;-71
2021/07/22 00:34:02;;;;;;;12.35;9.10;;;27.30;83.60;;;;;;5039260;28;20096;-71
2021/07/22 00:36:27;;;;;;;13.57;10.48;;;27.40;83.40;;;;;;5028989;28;20034;-70
2021/07/22 00:38:53;;;;;;;13.38;9.43;;;27.50;82.70;;;;;;5044441;28;20067;-71
2021/07/22 00:41:18;;;;;;;11.20;9.40;;;27.30;82.80;;;;;;5021808;28;20476;-70
2021/07/22 00:43:44;;;;;;;9.48;8.48;;;27.40;82.60;;;;;;5046372;28;20505;-71
2021/07/22 00:46:10;;;;;;;13.20;9.70;;;27.50;81.80;;;;;;5031655;28;20045;-71
2021/07/22 00:48:36;;;;;;;10.98;9.05;;;27.40;82.50;;;;;;5028427;28;20041;-71
2021/07/22 00:51:02;;;;;;;14.45;9.60;;;27.30;82.70;;;;;;5026656;28;20030;-71
2021/07/22 00:53:27;;;;;;;10.05;8.40;;;27.30;82.80;;;;;;5028684;28;20375;-71
2021/07/22 00:55:53;;;;;;;10.27;8.77;;;27.30;82.60;;;;;;5033228;28;20029;-70
2021/07/22 00:58:19;;;;;;;12.38;8.25;;;27.10;82.70;;;;;;5039993;28;20493;-70
2021/07/22 01:00:44;;;;;;;10.60;9.15;;;27.20;82.20;;;;;;5030043;28;20033;-71
2021/07/22 01:03:11;;;;;;;12.10;9.13;;;27.20;82.10;;;;;;5038185;28;20215;-71
2021/07/22 01:05:37;;;;;;;11.13;8.85;;;27.10;82.20;;;;;;5035918;28;20041;-71
2021/07/22 01:08:06;;;;;;;10.27;8.55;;;27.10;82.40;;;;;;5036893;28;20037;-70
2021/07/22 01:10:31;;;;;;;14.32;8.10;;;27.10;82.10;;;;;;5027832;28;20392;-70
2021/07/22 01:12:57;;;;;;;11.30;8.70;;;27.30;82.20;;;;;;5044222;28;20039;-70
2021/07/22 01:15:23;;;;;;;13.25;9.05;;;27.10;82.40;;;;;;5032931;28;20049;-70
2021/07/22 01:17:50;;;;;;;13.40;8.82;;;27.10;82.60;;;;;;5037931;28;20689;-70
2021/07/22 01:20:17;;;;;;;11.88;8.25;;;27.20;82.10;;;;;;5036368;28;20099;-71
2021/07/22 01:22:43;;;;;;;11.15;8.50;;;27.30;81.30;;;;;;5039583;28;20037;-70
2021/07/22 01:25:10;;;;;;;13.20;8.13;;;27.30;80.90;;;;;;5046550;28;20052;-70
2021/07/22 01:27:36;;;;;;;10.63;8.23;;;27.30;80.50;;;;;;5043116;28;20053;-70
2021/07/22 01:30:02;;;;;;;11.82;8.20;;;27.10;80.20;;;;;;5046655;28;20032;-71
2021/07/22 01:32:28;;;;;;;12.15;8.30;;;27.20;80.00;;;;;;5038295;28;20119;-70
2021/07/22 01:34:53;;;;;;;15.75;8.35;;;27.30;79.60;;;;;;5041066;28;20104;-70
2021/07/22 01:37:19;;;;;;;9.73;7.65;;;27.20;78.90;;;;;;5017251;28;20038;-70
2021/07/22 01:39:44;;;;;;;9.13;7.47;;;27.20;78.80;;;;;;5036577;28;20474;-70
2021/07/22 01:42:10;;;;;;;16.42;8.82;;;26.90;78.60;;;;;;5018684;28;20499;-71
2021/07/22 01:44:36;;;;;;;13.13;7.78;;;26.90;79.00;;;;;;5038266;28;20663;-70
2021/07/22 01:47:05;;;;;;;10.07;7.53;;;26.90;79.00;;;;;;5031902;28;20045;-72
2021/07/22 01:49:31;;;;;;;11.93;7.72;;;27.00;78.30;;;;;;5020674;28;20041;-71
2021/07/22 01:52:01;;;;;;;10.60;7.30;;;27.10;77.60;;;;;;5036227;28;20114;-71
2021/07/22 01:54:27;;;;;;;8.82;6.70;;;27.10;78.20;;;;;;5025330;28;20029;-72
2021/07/22 01:56:53;;;;;;;11.63;7.13;;;27.10;77.40;;;;;;5034384;28;20026;-71
2021/07/22 01:59:18;;;;;;;10.02;7.80;;;27.10;76.70;;;;;;5030900;28;20041;-71
2021/07/22 02:01:44;;;;;;;11.10;7.50;;;27.00;76.20;;;;;;5039011;28;20200;-71
2021/07/22 02:04:09;;;;;;;9.15;7.18;;;27.00;76.30;;;;;;5032093;28;20057;-72
2021/07/22 02:06:35;;;;;;;8.63;6.57;;;27.00;75.80;;;;;;5032344;28;20076;-72
2021/07/22 02:09:01;;;;;;;8.82;6.97;;;26.90;75.80;;;;;;5028344;28;20048;-71
2021/07/22 02:11:32;;;;;;;11.38;7.32;;;27.00;76.00;;;;;;5033255;28;20031;-71
2021/07/22 02:13:58;;;;;;;13.65;7.00;;;26.90;75.30;;;;;;5040760;28;20032;-71
2021/07/22 02:16:23;;;;;;;11.07;7.70;;;26.90;75.20;;;;;;5031003;28;20048;-71
2021/07/22 02:18:49;;;;;;;12.27;7.22;;;26.90;74.90;;;;;;5030172;28;20519;-71
2021/07/22 02:21:15;;;;;;;8.77;6.45;;;27.00;75.20;;;;;;5036995;28;20132;-68
2021/07/22 02:23:40;;;;;;;10.85;6.88;;;27.00;75.50;;;;;;5031382;28;20108;-71
2021/07/22 02:26:07;;;;;;;9.07;7.05;;;27.00;75.60;;;;;;5034615;28;20046;-71
2021/07/22 02:28:33;;;;;;;11.38;7.00;;;26.90;74.60;;;;;;5037989;28;20470;-71
2021/07/22 02:30:59;;;;;;;8.85;6.65;;;26.90;74.80;;;;;;5023990;28;20050;-69
2021/07/22 02:33:25;;;;;;;13.07;7.22;;;27.00;75.00;;;;;;5037646;28;20097;-71
2021/07/22 02:35:51;;;;;;;9.93;6.80;;;26.90;75.20;;;;;;5037709;28;20037;-71
2021/07/22 02:38:17;;;;;;;12.07;7.20;;;26.90;75.10;;;;;;5040083;28;20029;-70
2021/07/22 02:40:42;;;;;;;9.93;7.15;;;26.90;75.60;;;;;;5038199;28;20055;-70
2021/07/22 02:43:08;;;;;;;12.88;6.90;;;26.80;75.40;;;;;;5034066;28;20184;-71
2021/07/22 02:45:37;;;;;;;8.93;6.10;;;26.80;75.60;;;;;;5037400;28;20099;-71
2021/07/22 02:48:03;;;;;;;12.00;7.75;;;26.70;76.20;;;;;;5041223;28;20502;-71
2021/07/22 02:50:29;;;;;;;11.52;6.60;;;26.60;75.70;;;;;;5034646;28;20033;-69
2021/07/22 02:52:54;;;;;;;11.57;6.80;;;26.80;75.70;;;;;;5045162;28;20037;-71
2021/07/22 02:55:20;;;;;;;8.13;6.22;;;26.80;75.40;;;;;;5028974;28;20120;-70
2021/07/22 02:57:45;;;;;;;9.13;7.05;;;26.90;75.30;;;;;;5034635;28;20038;-69
2021/07/22 03:00:11;;;;;;;9.70;7.55;;;26.80;75.40;;;;;;5030167;28;20038;-71
2021/07/22 03:02:37;;;;;;;9.45;6.75;;;26.90;75.40;;;;;;5028270;28;20402;-70
2021/07/22 03:05:03;;;;;;;7.88;7.15;;;26.70;75.50;;;;;;5038341;28;20041;-71
2021/07/22 03:07:29;;;;;;;9.60;6.65;;;26.70;75.50;;;;;;5035310;28;20032;-69
2021/07/22 03:09:55;;;;;;;10.88;6.45;;;26.70;75.50;;;;;;5032666;28;20414;-70
2021/07/22 03:12:20;;;;;;;9.45;7.15;;;26.60;75.30;;;;;;5024939;28;20065;-70
2021/07/22 03:14:46;;;;;;;10.07;7.22;;;26.60;75.50;;;;;;5039647;28;20038;-70
2021/07/22 03:17:11;;;;;;;9.05;6.82;;;26.60;75.20;;;;;;5033098;28;20369;-70
2021/07/22 03:19:37;;;;;;;11.43;7.63;;;26.70;75.10;;;;;;5046655;28;20479;-70
2021/07/22 03:22:03;;;;;;;10.38;6.97;;;26.70;75.10;;;;;;5027828;28;20033;-69
2021/07/22 03:24:30;;;;;;;10.73;7.47;;;26.60;75.40;;;;;;5048220;28;20376;-69
2021/07/22 03:26:56;;;;;;;7.00;6.30;;;26.60;75.40;;;;;;5040446;28;20124;-70
2021/07/22 03:29:22;;;;;;;10.48;6.75;;;26.60;75.60;;;;;;5061538;28;20045;-68
2021/07/22 03:31:48;;;;;;;10.63;6.57;;;26.70;75.50;;;;;;5037047;28;20040;-69
2021/07/22 03:34:14;;;;;;;9.10;6.97;;;26.60;75.80;;;;;;5044731;28;20472;-70
2021/07/22 03:36:41;;;;;;;11.82;7.00;;;26.60;75.50;;;;;;5027212;28;20033;-70
2021/07/22 03:39:06;;;;;;;9.13;6.38;;;26.60;75.30;;;;;;5030385;28;20416;-70
2021/07/22 03:41:32;;;;;;;10.38;6.93;;;26.50;75.40;;;;;;5030167;28;20064;-69
2021/07/22 03:43:57;;;;;;;9.57;7.03;;;26.40;75.60;;;;;;5037036;28;20032;-69
2021/07/22 03:46:23;;;;;;;9.80;6.95;;;26.40;75.80;;;;;;5035113;28;20040;-68
2021/07/22 03:48:49;;;;;;;9.32;7.05;;;26.50;75.70;;;;;;5048765;28;20044;-69
2021/07/22 03:51:14;;;;;;;15.55;7.30;;;26.40;75.10;;;;;;5051660;28;20129;-70
2021/07/22 03:53:40;;;;;;;10.32;6.57;;;26.60;74.90;;;;;;5036354;28;20033;-69
2021/07/22 03:56:05;;;;;;;11.38;6.72;;;26.60;74.70;;;;;;5040423;28;20036;-68
2021/07/22 03:58:31;;;;;;;8.93;6.38;;;26.50;74.70;;;;;;5047348;28;20123;-69
2021/07/22 04:00:59;;;;;;;13.95;7.82;;;26.60;74.40;;;;;;5039639;28;20036;-69
2021/07/22 04:03:25;;;;;;;10.32;6.70;;;26.50;73.90;;;;;;5037728;28;20040;-69
2021/07/22 04:05:51;;;;;;;10.07;6.57;;;26.50;74.50;;;;;;5036623;28;20104;-70
2021/07/22 04:08:17;;;;;;;7.97;6.50;;;26.60;73.20;;;;;;5032714;28;20036;-68
2021/07/22 04:10:43;;;;;;;8.43;6.45;;;26.50;73.40;;;;;;5036845;28;20091;-70
2021/07/22 04:13:09;;;;;;;14.18;7.28;;;26.50;73.00;;;;;;5040385;28;20049;-70
2021/07/22 04:15:34;;;;;;;8.90;6.60;;;26.60;72.60;;;;;;5041269;28;20037;-69
2021/07/22 04:18:00;;;;;;;8.73;7.38;;;26.60;72.70;;;;;;5045643;28;20033;-70
2021/07/22 04:20:28;;;;;;;12.98;6.88;;;26.50;72.80;;;;;;5031738;28;20049;-69
2021/07/22 04:22:58;;;;;;;10.60;6.93;;;26.60;72.80;;;;;;5029177;28;20087;-69
2021/07/22 04:25:23;;;;;;;9.35;7.68;;;26.60;73.00;;;;;;5034490;28;20087;-70
2021/07/22 04:27:49;;;;;;;9.45;6.57;;;26.60;73.10;;;;;;5033667;28;20053;-69
2021/07/22 04:30:15;;;;;;;9.73;6.43;;;26.50;72.90;;;;;;5040420;28;20036;-70
2021/07/22 04:32:40;;;;;;;13.63;7.47;;;26.50;72.80;;;;;;5042737;28;20112;-70
2021/07/22 04:35:09;;;;;;;10.82;6.90;;;26.40;72.90;;;;;;5045476;28;20104;-70
2021/07/22 04:37:36;;;;;;;8.90;6.75;;;26.50;73.20;;;;;;5048497;28;20036;-71
2021/07/22 04:40:03;;;;;;;10.30;6.32;;;26.40;73.30;;;;;;5043969;28;20422;-70
2021/07/22 04:42:29;;;;;;;8.93;7.13;;;26.40;73.30;;;;;;5045798;28;20040;-70
2021/07/22 04:44:55;;;;;;;8.27;6.50;;;26.40;73.50;;;;;;5043086;28;20053;-70
2021/07/22 04:47:21;;;;;;;9.23;6.72;;;26.40;73.10;;;;;;5041030;28;20387;-70
2021/07/22 04:49:46;;;;;;;9.70;6.97;;;26.50;73.20;;;;;;5030153;28;20037;-59
2021/07/22 04:52:12;;;;;;;9.90;7.13;;;26.60;73.20;;;;;;5037684;28;20021;-70
2021/07/22 04:54:37;;;;;;;9.43;7.45;;;26.60;73.20;;;;;;5037520;28;20041;-70
2021/07/22 04:57:03;;;;;;;10.07;6.82;;;26.60;73.00;;;;;;5026693;28;20147;-70
2021/07/22 04:59:29;;;;;;;10.02;6.88;;;26.60;73.80;;;;;;5029330;28;20048;-70
2021/07/22 05:01:54;;;;;;;8.27;7.00;;;26.70;74.00;;;;;;5023713;28;20037;-70
2021/07/22 05:04:20;;;;;;;9.30;6.55;;;26.60;73.70;;;;;;5049232;28;20063;-69
2021/07/22 05:06:45;;;;;;;9.63;7.43;;;26.70;74.00;;;;;;5045761;28;20151;-70
2021/07/22 05:09:11;;;;;;;11.27;8.35;;;26.60;74.20;;;;;;5046852;28;20067;-70
2021/07/22 05:11:36;;;;;;;10.40;8.30;;;26.70;74.50;;;;;;5042702;28;20036;-70
2021/07/22 05:14:02;;;;;;;10.52;8.45;;;26.60;74.90;;;;;;5038311;28;20045;-70
2021/07/22 05:16:28;;;;;;;12.25;8.50;;;26.50;75.50;;;;;;5018282;28;21304;-70
2021/07/22 05:18:53;;;;;;;10.32;8.38;;;26.50;75.80;;;;;;5032798;28;20136;-70
2021/07/22 05:21:19;;;;;;;15.45;9.75;;;26.50;76.40;;;;;;5026699;28;20087;-69
2021/07/22 05:23:45;;;;;;;12.35;8.77;;;26.50;76.50;;;;;;5027125;28;20040;-70
2021/07/22 05:26:11;;;;;;;13.73;9.15;;;26.50;76.30;;;;;;5022439;28;20044;-70
2021/07/22 05:28:37;;;;;;;12.02;8.45;;;26.40;76.10;;;;;;5038980;28;20042;-69
2021/07/22 05:31:08;;;;;;;13.85;8.77;;;26.50;75.90;;;;;;5026883;28;20061;-70
2021/07/22 05:33:34;;;;;;;12.98;9.07;;;26.40;76.50;;;;;;5028022;28;20045;-70
2021/07/22 05:36:04;;;;;;;11.52;8.57;;;26.60;76.60;;;;;;5027698;28;20098;-70
2021/07/22 05:38:31;;;;;;;12.38;9.05;;;26.60;76.90;;;;;;5023177;28;20496;-70
2021/07/22 05:41:00;;;;;;;13.60;8.80;;;26.60;76.20;;;;;;5025715;28;20576;-70
2021/07/22 05:43:29;;;;;;;13.43;9.43;;;26.60;76.50;;;;;;5023159;28;20033;-69
2021/07/22 05:45:55;;;;;;;19.02;9.68;;;26.60;76.80;;;;;;5025620;28;20059;-70
2021/07/22 05:48:21;;;;;;;15.85;8.90;;;26.60;76.20;;;;;;5023363;28;20029;-70
2021/07/22 05:50:49;;;;;;;17.92;8.32;;;26.60;76.00;;;;;;5018839;28;20049;-64
2021/07/22 05:53:15;;;;;;;14.23;8.43;;;26.60;75.20;;;;;;5020865;28;20150;-70
2021/07/22 05:55:41;;;;;;;13.10;9.23;;;26.80;75.20;;;;;;5027593;28;20061;-70
2021/07/22 05:58:06;;;;;;;17.92;8.27;;;26.80;75.00;;;;;;5020993;28;20127;-70
2021/07/22 06:00:32;;;;;;;12.25;8.57;;;26.90;74.70;;;;;;5026052;28;20487;-70
2021/07/22 06:02:58;;;;;;;14.30;9.13;;;27.00;74.50;;;;;;5024590;28;20049;-70
2021/07/22 06:05:23;;;;;;;14.15;10.13;;;26.80;74.10;;;;;;5024640;28;20045;-71
2021/07/22 06:07:49;;;;;;;19.35;10.68;;;26.90;74.20;;;;;;5018145;28;20111;-70
2021/07/22 06:10:15;;;;;;;14.05;9.88;;;26.90;74.60;;;;;;5021115;28;20479;-71
2021/07/22 06:12:41;;;;;;;18.08;9.07;;;27.00;73.90;;;;;;5022141;28;20487;-70
2021/07/22 06:15:09;;;;;;;16.83;8.80;;;27.20;74.00;;;;;;5028415;28;20466;-70
2021/07/22 06:17:35;;;;;;;15.98;9.45;;;27.20;73.50;;;;;;5022434;28;20159;-70
2021/07/22 06:20:00;;;;;;;14.13;9.45;;;27.30;72.40;;;;;;5033707;28;20457;-70
2021/07/22 06:22:26;;;;;;;25.13;10.50;;;27.30;71.70;;;;;;5045690;28;20033;-69
2021/07/22 06:24:52;;;;;;;16.23;9.57;;;27.40;72.30;;;;;;5031182;28;20036;-70
2021/07/22 06:27:17;;;;;;;11.98;8.40;;;27.30;71.60;;;;;;5024198;28;20438;-67
2021/07/22 06:29:43;;;;;;;11.38;8.63;;;27.40;71.70;;;;;;5035727;28;20048;-70
2021/07/22 06:32:08;;;;;;;14.82;10.18;;;27.40;70.70;;;;;;5042100;28;20047;-70
2021/07/22 06:34:34;;;;;;;14.43;8.90;;;27.20;69.90;;;;;;5042309;28;20037;-70
2021/07/22 06:37:00;;;;;;;11.13;8.20;;;27.10;70.80;;;;;;5043775;28;20029;-70
2021/07/22 06:39:25;;;;;;;16.15;9.77;;;27.20;70.20;;;;;;5039403;28;20045;-70
2021/07/22 06:41:57;;;;;;;15.07;9.82;;;26.90;70.00;;;;;;5024115;28;20052;-69
2021/07/22 06:44:23;;;;;;;14.05;9.07;;;27.00;71.40;;;;;;5044612;28;20117;-69
2021/07/22 06:46:48;;;;;;;15.57;8.82;;;27.00;71.30;;;;;;5032476;28;20535;-69
2021/07/22 06:49:14;;;;;;;12.48;8.25;;;27.00;71.50;;;;;;5019521;28;20041;-68
2021/07/22 06:51:40;;;;;;;12.52;8.85;;;27.10;71.50;;;;;;5056745;28;20120;-70
2021/07/22 06:54:08;;;;;;;22.05;10.05;;;27.20;71.60;;;;;;5041132;28;20029;-69
2021/07/22 06:56:34;;;;;;;16.05;8.45;;;27.10;70.60;;;;;;5047608;28;20432;-70
2021/07/22 06:59:00;;;;;;;12.90;7.78;;;27.10;70.70;;;;;;5040580;28;20055;-70
2021/07/22 07:01:25;;;;;;;13.18;9.07;;;27.20;70.90;;;;;;5025191;28;20036;-71
2021/07/22 07:03:51;;;;;;;15.63;7.90;;;27.30;70.50;;;;;;5046766;28;20033;-70
2021/07/22 07:06:16;;;;;;;8.68;7.47;;;27.40;70.00;;;;;;5032778;28;20049;-70
2021/07/22 07:08:42;;;;;;;16.08;8.00;;;27.30;69.00;;;;;;5052078;28;20034;-70
2021/07/22 07:11:08;;;;;;;9.50;7.50;;;27.20;68.60;;;;;;5044337;28;20045;-70
2021/07/22 07:13:34;;;;;;;23.42;7.97;;;27.40;68.30;;;;;;5043106;28;20153;-70
2021/07/22 07:16:06;;;;;;;13.52;7.32;;;27.50;67.90;;;;;;5043569;28;20043;-70
2021/07/22 07:18:32;;;;;;;12.70;7.00;;;27.50;67.00;;;;;;5042377;28;20064;-71
2021/07/22 07:21:04;;;;;;;12.30;7.05;;;27.50;67.20;;;;;;5045821;28;20061;-70
2021/07/22 07:23:31;;;;;;;11.63;7.95;;;27.70;68.00;;;;;;5045056;28;20099;-70
2021/07/22 07:25:56;;;;;;;12.25;7.85;;;27.80;67.80;;;;;;5041063;28;20051;-68
2021/07/22 07:28:22;;;;;;;12.52;7.32;;;27.70;66.20;;;;;;5041607;28;20033;-68
2021/07/22 07:30:48;;;;;;;19.30;8.10;;;27.80;65.80;;;;;;5041806;28;20049;-67
2021/07/22 07:33:13;;;;;;;13.63;7.28;;;27.80;65.20;;;;;;5025798;28;20037;-70
2021/07/22 07:35:39;;;;;;;10.90;7.55;;;27.80;65.30;;;;;;5029112;28;20033;-70
2021/07/22 07:38:05;;;;;;;11.05;7.10;;;27.80;65.90;;;;;;5042345;28;20033;-70
2021/07/22 07:40:31;;;;;;;8.52;7.13;;;27.80;65.30;;;;;;5029204;28;20041;-70
2021/07/22 07:42:57;;;;;;;12.57;7.53;;;27.50;65.00;;;;;;5045968;28;20037;-69
2021/07/22 07:45:24;;;;;;;10.63;7.43;;;27.50;66.10;;;;;;5045074;28;20076;-69
2021/07/22 07:47:51;;;;;;;10.07;7.28;;;27.70;66.00;;;;;;5034989;28;20041;-69
2021/07/22 07:50:17;;;;;;;8.80;7.25;;;27.60;64.40;;;;;;5048879;28;20445;-70
2021/07/22 07:52:43;;;;;;;10.75;7.60;;;27.80;64.60;;;;;;5033651;28;20479;-69
2021/07/22 07:55:10;;;;;;;12.90;6.90;;;28.00;64.50;;;;;;5050172;28;20033;-70
2021/07/22 07:57:36;;;;;;;10.57;7.38;;;28.00;63.60;;;;;;5033712;28;20076;-70
2021/07/22 08:00:01;;;;;;;10.25;8.45;;;28.30;63.20;;;;;;5034612;28;20037;-70
2021/07/22 08:02:27;;;;;;;10.30;7.13;;;28.40;62.30;;;;;;5038402;28;20041;-70
2021/07/22 08:04:55;;;;;;;10.10;7.30;;;28.50;62.30;;;;;;5052522;28;20132;-70
2021/07/22 08:07:21;;;;;;;9.93;7.60;;;28.70;61.00;;;;;;5031150;28;20042;-70
2021/07/22 08:09:47;;;;;;;8.27;7.47;;;28.70;59.60;;;;;;5043040;28;20042;-70
2021/07/22 08:12:13;;;;;;;11.13;7.18;;;28.90;60.40;;;;;;5035192;28;20517;-70
2021/07/22 08:14:39;;;;;;;12.02;7.25;;;29.00;59.80;;;;;;5027278;28;20491;-71
2021/07/22 08:17:05;;;;;;;12.15;7.57;;;29.10;59.30;;;;;;5029332;28;20041;-71
2021/07/22 08:19:31;;;;;;;12.27;6.78;;;29.00;59.30;;;;;;5021315;28;20045;-70
2021/07/22 08:21:57;;;;;;;9.95;7.38;;;29.00;58.80;;;;;;5025406;28;20049;-70
2021/07/22 08:24:23;;;;;;;10.93;7.68;;;29.20;58.00;;;;;;5025506;28;20393;-70
2021/07/22 08:26:48;;;;;;;13.68;7.97;;;29.20;57.00;;;;;;5029156;28;20046;-69
2021/07/22 08:29:14;;;;;;;9.73;7.70;;;29.30;57.20;;;;;;5036701;28;20046;-70
2021/07/22 08:31:39;;;;;;;14.48;7.65;;;29.40;57.10;;;;;;5036387;28;20123;-70
2021/07/22 08:34:05;;;;;;;11.85;7.57;;;29.50;57.10;;;;;;5025607;28;20398;-70
2021/07/22 08:36:30;;;;;;;9.82;7.38;;;29.60;56.60;;;;;;5037564;28;20107;-71
2021/07/22 08:38:56;;;;;;;44.92;12.43;;;29.60;56.20;;;;;;5030112;28;20478;-68
2021/07/22 08:41:22;;;;;;;15.82;7.80;;;29.50;57.20;;;;;;5040252;28;20048;-69
2021/07/22 08:43:52;;;;;;;12.13;8.13;;;29.50;57.10;;;;;;5043120;28;20136;-58
2021/07/22 08:46:20;;;;;;;11.88;7.80;;;29.50;56.50;;;;;;5039468;28;20039;-59
2021/07/22 08:48:46;;;;;;;13.02;8.27;;;29.50;56.30;;;;;;5037201;28;20041;-69
2021/07/22 08:51:12;;;;;;;13.50;8.07;;;29.40;56.20;;;;;;5029555;28;20388;-70
2021/07/22 08:53:37;;;;;;;9.50;7.60;;;29.50;55.60;;;;;;5028434;28;20048;-69
2021/07/22 08:56:06;;;;;;;8.13;7.25;;;29.50;55.80;;;;;;5029172;28;20084;-70
2021/07/22 08:58:32;;;;;;;12.48;8.10;;;29.60;55.80;;;;;;5043975;28;20114;-70
2021/07/22 09:01:01;;;;;;;14.20;7.90;;;29.60;58.50;;;;;;5039293;28;20180;-67
2021/07/22 09:03:27;;;;;;;11.30;8.30;;;29.70;57.30;;;;;;5027554;28;20030;-67
2021/07/22 09:05:52;;;;;;;12.80;7.93;;;29.40;57.60;;;;;;5042232;28;20049;-68
2021/07/22 09:08:18;;;;;;;8.35;7.47;;;29.30;58.20;;;;;;5032230;28;20045;-65
2021/07/22 09:11:05;;;;;;;10.50;8.18;;;29.30;57.80;;;;;;5037770;28;20056;-68
2021/07/22 09:13:35;;;;;;;10.82;7.78;;;29.20;56.80;;;;;;5014202;28;20048;-68
2021/07/22 09:16:01;;;;;;;10.02;8.15;;;29.20;59.00;;;;;;5042607;28;20038;-68
2021/07/22 09:18:31;;;;;;;10.43;8.20;;;29.40;56.00;;;;;;5029204;28;20033;-67
2021/07/22 09:20:57;;;;;;;15.70;8.57;;;29.30;55.70;;;;;;5032096;28;20045;-68
2021/07/22 09:23:28;;;;;;;16.38;10.43;;;29.30;57.10;;;;;;5043994;28;20043;-68
2021/07/22 09:25:55;;;;;;;11.30;9.13;;;29.30;56.10;;;;;;5039578;28;20133;-67
2021/07/22 09:28:23;;;;;;;14.48;8.88;;;29.30;56.70;;;;;;5043206;28;20033;-67
2021/07/22 09:31:13;;;;;;;10.15;7.55;;;29.30;58.20;;;;;;5033151;28;20029;-66
2021/07/22 09:33:43;;;;;;;11.43;8.18;;;29.40;56.50;;;;;;5037560;28;20045;-68
2021/07/22 09:36:18;;;;;;;33.72;10.95;;;29.50;56.60;;;;;;5029180;28;20033;-68
2021/07/22 09:38:43;;;;;;;47.38;14.73;;;29.60;55.00;;;;;;5026164;28;20121;-67
2021/07/22 09:41:21;;;;;;;17.08;8.95;;;29.60;55.90;;;;;;5013603;28;20594;-67
2021/07/22 09:43:46;;;;;;;11.02;8.15;;;29.70;55.90;;;;;;5028879;28;20490;-67
2021/07/22 09:46:14;;;;;;;14.90;8.55;;;29.70;58.60;;;;;;5038260;28;20044;-68
2021/07/22 09:49:09;;;;;;;10.85;7.85;;;29.70;59.80;;;;;;5039883;28;20099;-67
2021/07/22 09:51:36;;;;;;;13.18;8.50;;;29.90;57.00;;;;;;5013662;28;20176;-67
2021/07/22 09:54:10;;;;;;;12.77;9.63;;;30.00;56.10;;;;;;5044225;28;20139;-67
2021/07/22 09:56:37;;;;;;;13.13;9.27;;;30.00;56.70;;;;;;5042358;28;20040;-67
2021/07/22 09:59:03;;;;;;;10.25;8.45;;;30.00;54.80;;;;;;5039822;28;20128;-67
2021/07/22 10:01:40;;;;;;;15.32;8.48;;;30.20;55.60;;;;;;5044910;28;20174;-67
2021/07/22 10:04:07;;;;;;;32.60;17.88;;;30.10;55.50;;;;;;5026123;28;20041;-67
2021/07/22 10:06:34;;;;;;;18.90;11.48;;;30.20;56.80;;;;;;5024630;28;20084;-68
2021/07/22 10:09:01;;;;;;;10.80;9.70;;;30.20;55.30;;;;;;5035479;28;20037;-67
2021/07/22 10:11:28;;;;;;;9.00;8.20;;;30.40;53.80;;;;;;5026491;28;20040;-68
2021/07/22 10:13:53;;;;;;;11.77;7.82;;;30.30;53.20;;;;;;5026614;28;20395;-67
2021/07/22 10:16:22;;;;;;;8.43;7.63;;;30.30;53.80;;;;;;5043875;28;20042;-68
2021/07/22 10:18:50;;;;;;;9.02;8.07;;;30.40;53.70;;;;;;5034018;28;20045;-68
2021/07/22 10:21:17;;;;;;;9.93;7.88;;;30.40;54.10;;;;;;5035588;28;20084;-68
2021/07/22 10:23:43;;;;;;;9.98;8.07;;;30.50;53.10;;;;;;5029384;28;20060;-69
2021/07/22 10:26:09;;;;;;;14.40;8.70;;;30.50;52.50;;;;;;5063497;28;20471;-69
2021/07/22 10:28:36;;;;;;;9.07;8.20;;;30.50;53.10;;;;;;5035501;28;20495;-69
2021/07/22 10:31:05;;;;;;;12.13;8.45;;;30.50;52.90;;;;;;5043312;28;20458;-69
2021/07/22 10:33:33;;;;;;;11.27;8.82;;;30.40;53.20;;;;;;5042504;28;20090;-69
2021/07/22 10:36:00;;;;;;;13.23;9.25;;;30.60;53.80;;;;;;5040262;28;20365;-69
2021/07/22 10:38:44;;;;;;;10.40;9.00;;;30.70;53.30;;;;;;5025012;28;20041;-69
2021/07/22 10:41:30;;;;;;;12.00;9.15;;;30.90;53.10;;;;;;5029619;28;20044;-69
2021/07/22 10:43:56;;;;;;;10.77;9.70;;;30.90;54.00;;;;;;5003053;28;20100;-70
2021/07/22 10:46:21;;;;;;;13.90;8.57;;;31.20;53.60;;;;;;5030749;28;20491;-70
2021/07/22 10:48:48;;;;;;;11.40;8.50;;;31.20;53.40;;;;;;5040579;28;20052;-71
2021/07/22 10:51:18;;;;;;;43.33;31.73;;;31.30;51.20;;;;;;5037186;28;20045;-71
2021/07/22 10:53:44;;;;;;;13.23;8.93;;;31.40;50.50;;;;;;5046295;28;20041;-71
2021/07/22 10:56:14;;;;;;;11.85;10.15;;;31.30;50.80;;;;;;5048754;28;20040;-70
2021/07/22 10:58:40;;;;;;;9.10;6.63;;;31.50;50.00;;;;;;5036444;28;20045;-71
2021/07/22 11:01:06;;;;;;;11.13;7.57;;;31.70;48.40;;;;;;5030251;28;20037;-71
2021/07/22 11:03:35;;;;;;;12.88;7.93;;;31.90;47.20;;;;;;5026581;28;20075;-71
2021/07/22 11:06:06;;;;;;;12.35;8.07;;;32.10;46.00;;;;;;5027701;28;20395;-68
2021/07/22 11:08:39;;;;;;;9.63;8.18;;;32.00;46.80;;;;;;5035537;28;20445;-71
2021/07/22 11:11:09;;;;;;;13.50;8.60;;;32.40;46.30;;;;;;5037746;28;20057;-71
2021/07/22 11:13:34;;;;;;;13.60;9.55;;;34.40;43.90;;;;;;5035907;28;20042;-70
2021/07/22 11:16:01;;;;;;;11.23;8.18;;;35.40;42.10;;;;;;5038924;28;20029;-71
2021/07/22 11:18:43;;;;;;;12.50;10.20;;;35.70;40.90;;;;;;5031250;28;20047;-70
2021/07/22 11:21:10;;;;;;;9.13;8.27;;;35.60;39.60;;;;;;5027187;28;20125;-70
2021/07/22 11:23:36;;;;;;;12.75;8.88;;;35.20;40.40;;;;;;5029502;28;20076;-73
2021/07/22 11:26:02;;;;;;;19.98;10.55;;;35.30;40.20;;;;;;5038200;28;20069;-73
2021/07/22 11:28:28;;;;;;;21.65;10.38;;;35.00;41.30;;;;;;5034860;28;20072;-71
2021/07/22 11:31:07;;;;;;;17.33;11.43;;;34.70;42.00;;;;;;5030818;28;20439;-71
2021/07/22 11:33:35;;;;;;;14.82;9.65;;;34.40;41.30;;;;;;5041929;28;20163;-71
2021/07/22 11:36:03;;;;;;;13.13;9.80;;;34.20;41.70;;;;;;5047937;28;20068;-71
2021/07/22 11:38:29;;;;;;;13.27;10.02;;;34.20;42.00;;;;;;5048985;28;20033;-71
2021/07/22 11:40:55;;;;;;;12.50;10.10;;;34.80;42.10;;;;;;5014192;28;20510;-71
2021/07/22 11:43:35;;;;;;;13.02;9.95;;;35.00;41.50;;;;;;5036160;28;20652;-72
2021/07/22 11:46:06;;;;;;;10.93;9.82;;;34.70;41.00;;;;;;5042500;28;20056;-72
2021/07/22 11:48:31;;;;;;;11.52;9.52;;;34.70;41.80;;;;;;5039803;28;20068;-72
2021/07/22 11:51:08;;;;;;;11.07;8.68;;;35.00;41.70;;;;;;5042894;28;20118;-72
2021/07/22 11:53:35;;;;;;;12.73;9.25;;;35.10;40.20;;;;;;5044500;28;20041;-72
2021/07/22 11:56:13;;;;;;;13.05;9.40;;;35.20;40.90;;;;;;5031502;28;20037;-76
2021/07/22 11:58:43;;;;;;;13.73;10.32;;;35.70;39.80;;;;;;5037556;28;20509;-74
2021/07/22 12:01:09;;;;;;;17.65;9.93;;;35.70;40.40;;;;;;5044167;28;20041;-75
2021/07/22 12:03:34;;;;;;;16.23;9.43;;;35.90;40.50;;;;;;5050718;28;20036;-76
2021/07/22 12:06:00;;;;;;;13.15;10.50;;;36.40;39.10;;;;;;5050001;28;20081;-74
2021/07/22 12:08:25;;;;;;;24.05;11.00;;;36.50;38.20;;;;;;5038029;28;20045;-75
2021/07/22 12:11:00;;;;;;;15.30;10.60;;;38.20;37.30;;;;;;5032884;28;20167;-74
2021/07/22 12:13:26;;;;;;;14.45;12.35;;;39.50;36.10;;;;;;5057236;28;20392;-73
2021/07/22 12:15:53;;;;;;;14.10;10.65;;;40.60;34.00;;;;;;5037917;28;20038;-73
2021/07/22 12:18:21;;;;;;;14.35;10.10;;;41.70;33.30;;;;;;5013954;28;20030;-73
2021/07/22 12:20:47;;;;;;;14.20;10.23;;;41.60;32.40;;;;;;5027857;28;20049;-74
2021/07/22 12:23:26;;;;;;;11.27;9.57;;;40.80;32.80;;;;;;5027361;28;20506;-72
2021/07/22 12:25:56;;;;;;;10.98;9.82;;;40.10;32.70;;;;;;5033134;28;20391;-74
2021/07/22 12:28:22;;;;;;;11.32;10.18;;;39.00;34.60;;;;;;5031725;28;20040;-74
2021/07/22 12:30:48;;;;;;;12.07;10.52;;;38.40;34.40;;;;;;5045008;28;20051;-73
2021/07/22 12:33:22;;;;;;;10.85;9.80;;;37.80;35.70;;;;;;5031007;28;20115;-73
2021/07/22 12:35:47;;;;;;;12.23;10.48;;;37.80;35.70;;;;;;5038200;28;20038;-73
2021/07/22 12:38:19;;;;;;;16.02;10.77;;;37.60;36.60;;;;;;5038552;28;20491;-73